Aroma, IN

2:49 PM EDT on September 01, 2014 (GMT -0400)
KINATLAN2 | Change Station
CLOSE
Current Station
Personal Weather Station
Location: Atlanta, IN
Elevation: 866 ft
Nearby Weather Stations

Elev 866 ft 40.19 °N, 86.05 °W | Updated 4 minutes ago

Partly Cloudy
Partly Cloudy
81.6 °F
Feels Like 88 °F
N
10.0
Wind Variable Wind from SSW
Gusts 12.0 mph

Today
High -- | Low -- °F
--% Chance of Precip.
Yesterday
High -- | Low -- °F
Precip. -- in
7:11 AM 8:15 PM
Waxing Crescent, 43% visible
Pressure 29.89 in
Visibility 10.0 miles
Clouds Scattered Clouds 2500 ft
Scattered Clouds 3200 ft
Scattered Clouds 3800 ft
Heat Index 88 °F
Dew Point 74 °F
Humidity 79%
Rainfall 0.00 in
Snow Depth Not available.
UV 7 out of 12
Pollen 10.40 out of 12
Ozone Good
PM2.5 Moderate
Flu Activity Not available.
METAR KTYQ 011835Z AUTO 22014G18KT 10SM SCT025 SCT032 SCT038 28/21 A2989 RMK AO2 T02750213

More Conditions Fewer Conditions

Pressure 29.89 in
Visibility 10.0 miles
Clouds Scattered Clouds 2500 ft
Scattered Clouds 3200 ft
Scattered Clouds 3800 ft
Heat Index 88 °F
Dew Point 74 °F
Humidity 79%
Rainfall 0.00 in
Snow Depth Not available.
UV 7 out of 12
Pollen 10.40 out of 12
Ozone Good
PM2.5 Moderate
Flu Activity Not available.
METAR KTYQ 011835Z AUTO 22014G18KT 10SM SCT025 SCT032 SCT038 28/21 A2989 RMK AO2 T02750213

More Conditions Fewer Conditions

10-Day Weather Forecast

Almanac

Astronomy

Sep. 01, 2014 Rise Set
Actual Time 7:11 AM EDT 8:15 PM EDT
Civil Twilight 6:43 AM EDT 8:43 PM EDT
Nautical Twilight 6:10 AM EDT 9:16 PM EDT
Astronomical Twilight 5:35 AM EDT 9:50 PM EDT
Moon 1:56 PM EDT No Moon Set
Length of Visible Light 13h 59m
Length of Day
13h 04m
Tomorrow will be 2m 33s shorter.
Waxing Crescent, 43% of the Moon is Illuminated
Today
Waxing Crescent
Sep 2
First Quarter
Sep 8
Full
Sep 15
Last Quarter
Sep 24
New

Today's Extremes

State Highs State Lows

Community

WunderPhotos

Upload Photos

1,749,359 photos uploaded!

Nearby

Air Quality

  Air Quality AQ Index Pollutant
Yesterday Good
PM2.5
Yesterday Good
OZONE
Current Moderate
PM2.5
Current Good
OZONE
Monday Moderate
PM2.5
Monday Good
OZONE
Tuesday Moderate
PM2.5
Tuesday Good
OZONE

Snow Depth

Station Depth Elevation
No new snow has been reported.

Earthquake Activity

City Distance Mag. Time & Date
No recent earthquake activity has been reported nearby.
Minimum magnitude displayed is 2.5.

Coastal Water Temperatures

Place Temperature
No Stations Reporting

Nearby Weather Stations